sensor_id;sensor_type;location;lat;lon;timestamp;P1;durP1;ratioP1;P2;durP2;ratioP2
53843;SDS011;39744;53.314;5.710;2023-01-08T00:00:06;4.90;;;2.50;;
53843;SDS011;39744;53.314;5.710;2023-01-08T00:02:32;7.38;;;3.13;;
53843;SDS011;39744;53.314;5.710;2023-01-08T00:05:02;6.30;;;3.70;;
53843;SDS011;39744;53.314;5.710;2023-01-08T00:07:33;9.60;;;4.10;;
53843;SDS011;39744;53.314;5.710;2023-01-08T00:10:03;8.43;;;4.28;;
53843;SDS011;39744;53.314;5.710;2023-01-08T00:12:29;8.93;;;4.85;;
53843;SDS011;39744;53.314;5.710;2023-01-08T00:14:55;8.88;;;5.25;;
53843;SDS011;39744;53.314;5.710;2023-01-08T00:17:21;11.55;;;5.28;;
53843;SDS011;39744;53.314;5.710;2023-01-08T00:19:46;8.40;;;5.43;;
53843;SDS011;39744;53.314;5.710;2023-01-08T00:22:12;12.82;;;5.68;;
53843;SDS011;39744;53.314;5.710;2023-01-08T00:24:38;8.57;;;5.28;;
53843;SDS011;39744;53.314;5.710;2023-01-08T00:27:03;8.68;;;5.10;;
53843;SDS011;39744;53.314;5.710;2023-01-08T00:29:29;10.27;;;5.13;;
53843;SDS011;39744;53.314;5.710;2023-01-08T00:31:55;10.25;;;4.95;;
53843;SDS011;39744;53.314;5.710;2023-01-08T00:34:20;8.40;;;4.75;;
53843;SDS011;39744;53.314;5.710;2023-01-08T00:36:46;9.00;;;5.13;;
53843;SDS011;39744;53.314;5.710;2023-01-08T00:39:11;8.88;;;5.13;;
53843;SDS011;39744;53.314;5.710;2023-01-08T00:41:37;9.95;;;4.82;;
53843;SDS011;39744;53.314;5.710;2023-01-08T00:44:03;12.80;;;5.25;;
53843;SDS011;39744;53.314;5.710;2023-01-08T00:46:28;12.43;;;5.25;;
53843;SDS011;39744;53.314;5.710;2023-01-08T00:48:56;10.00;;;5.22;;
53843;SDS011;39744;53.314;5.710;2023-01-08T00:51:25;8.32;;;4.53;;
53843;SDS011;39744;53.314;5.710;2023-01-08T00:53:51;9.25;;;4.53;;
53843;SDS011;39744;53.314;5.710;2023-01-08T00:56:17;10.68;;;5.07;;
53843;SDS011;39744;53.314;5.710;2023-01-08T00:58:44;8.50;;;4.70;;
53843;SDS011;39744;53.314;5.710;2023-01-08T01:01:13;14.32;;;4.68;;
53843;SDS011;39744;53.314;5.710;2023-01-08T01:03:40;10.30;;;4.18;;
53843;SDS011;39744;53.314;5.710;2023-01-08T01:06:06;7.60;;;4.13;;
53843;SDS011;39744;53.314;5.710;2023-01-08T01:08:35;9.93;;;4.07;;
53843;SDS011;39744;53.314;5.710;2023-01-08T01:11:05;9.88;;;4.40;;
53843;SDS011;39744;53.314;5.710;2023-01-08T01:13:32;10.57;;;3.90;;
53843;SDS011;39744;53.314;5.710;2023-01-08T01:15:58;8.82;;;3.95;;
53843;SDS011;39744;53.314;5.710;2023-01-08T01:18:25;9.30;;;3.40;;
53843;SDS011;39744;53.314;5.710;2023-01-08T01:20:51;14.52;;;3.58;;
53843;SDS011;39744;53.314;5.710;2023-01-08T01:23:20;11.23;;;3.10;;
53843;SDS011;39744;53.314;5.710;2023-01-08T01:25:46;10.68;;;3.22;;
53843;SDS011;39744;53.314;5.710;2023-01-08T01:28:12;13.20;;;3.05;;
53843;SDS011;39744;53.314;5.710;2023-01-08T01:30:37;15.38;;;3.40;;
53843;SDS011;39744;53.314;5.710;2023-01-08T01:33:03;12.70;;;3.28;;
53843;SDS011;39744;53.314;5.710;2023-01-08T01:35:28;17.27;;;3.00;;
53843;SDS011;39744;53.314;5.710;2023-01-08T01:37:54;13.15;;;3.08;;
53843;SDS011;39744;53.314;5.710;2023-01-08T01:40:20;14.30;;;2.88;;
53843;SDS011;39744;53.314;5.710;2023-01-08T01:42:45;14.75;;;2.95;;
53843;SDS011;39744;53.314;5.710;2023-01-08T01:47:59;17.92;;;2.95;;
53843;SDS011;39744;53.314;5.710;2023-01-08T01:50:38;17.65;;;3.10;;
53843;SDS011;39744;53.314;5.710;2023-01-08T01:53:14;16.10;;;2.90;;
53843;SDS011;39744;53.314;5.710;2023-01-08T01:55:43;22.42;;;3.17;;
53843;SDS011;39744;53.314;5.710;2023-01-08T01:58:12;14.82;;;2.80;;
53843;SDS011;39744;53.314;5.710;2023-01-08T02:00:40;17.67;;;2.70;;
53843;SDS011;39744;53.314;5.710;2023-01-08T02:03:07;15.82;;;3.00;;
53843;SDS011;39744;53.314;5.710;2023-01-08T02:05:49;16.58;;;3.25;;
53843;SDS011;39744;53.314;5.710;2023-01-08T02:08:41;23.13;;;3.67;;
53843;SDS011;39744;53.314;5.710;2023-01-08T02:11:09;16.33;;;3.08;;
53843;SDS011;39744;53.314;5.710;2023-01-08T02:13:58;26.17;;;3.45;;
53843;SDS011;39744;53.314;5.710;2023-01-08T02:17:15;19.17;;;3.22;;
53843;SDS011;39744;53.314;5.710;2023-01-08T02:27:54;21.33;;;3.15;;
53843;SDS011;39744;53.314;5.710;2023-01-08T02:30:23;15.45;;;2.65;;
53843;SDS011;39744;53.314;5.710;2023-01-08T02:32:49;14.48;;;2.80;;
53843;SDS011;39744;53.314;5.710;2023-01-08T02:35:15;14.40;;;2.67;;
53843;SDS011;39744;53.314;5.710;2023-01-08T02:37:41;13.70;;;2.72;;
53843;SDS011;39744;53.314;5.710;2023-01-08T02:40:13;11.90;;;2.33;;
53843;SDS011;39744;53.314;5.710;2023-01-08T02:43:21;16.65;;;2.75;;
53843;SDS011;39744;53.314;5.710;2023-01-08T02:46:16;19.10;;;2.30;;
53843;SDS011;39744;53.314;5.710;2023-01-08T02:48:53;11.60;;;2.83;;
53843;SDS011;39744;53.314;5.710;2023-01-08T02:51:29;8.85;;;2.35;;
53843;SDS011;39744;53.314;5.710;2023-01-08T02:54:04;15.15;;;2.30;;
53843;SDS011;39744;53.314;5.710;2023-01-08T02:56:35;11.30;;;2.22;;
53843;SDS011;39744;53.314;5.710;2023-01-08T02:59:04;11.00;;;2.67;;
53843;SDS011;39744;53.314;5.710;2023-01-08T03:01:31;12.38;;;2.70;;
53843;SDS011;39744;53.314;5.710;2023-01-08T03:03:59;17.98;;;3.22;;
53843;SDS011;39744;53.314;5.710;2023-01-08T03:06:36;13.63;;;2.63;;
53843;SDS011;39744;53.314;5.710;2023-01-08T03:09:02;11.80;;;2.08;;
53843;SDS011;39744;53.314;5.710;2023-01-08T03:11:30;11.05;;;2.67;;
53843;SDS011;39744;53.314;5.710;2023-01-08T03:14:06;15.13;;;2.47;;
53843;SDS011;39744;53.314;5.710;2023-01-08T03:16:42;16.08;;;2.67;;
53843;SDS011;39744;53.314;5.710;2023-01-08T03:21:45;14.27;;;2.63;;
53843;SDS011;39744;53.314;5.710;2023-01-08T03:24:14;8.93;;;2.67;;
53843;SDS011;39744;53.314;5.710;2023-01-08T03:29:16;9.88;;;2.42;;
53843;SDS011;39744;53.314;5.710;2023-01-08T03:31:44;14.43;;;3.17;;
53843;SDS011;39744;53.314;5.710;2023-01-08T03:34:12;15.55;;;2.75;;
53843;SDS011;39744;53.314;5.710;2023-01-08T03:36:40;16.75;;;3.33;;
53843;SDS011;39744;53.314;5.710;2023-01-08T03:39:11;13.80;;;2.60;;
53843;SDS011;39744;53.314;5.710;2023-01-08T03:41:40;15.35;;;2.53;;
53843;SDS011;39744;53.314;5.710;2023-01-08T03:44:06;17.13;;;2.90;;
53843;SDS011;39744;53.314;5.710;2023-01-08T03:46:34;17.60;;;3.75;;
53843;SDS011;39744;53.314;5.710;2023-01-08T03:49:03;15.02;;;3.28;;
53843;SDS011;39744;53.314;5.710;2023-01-08T03:51:38;10.63;;;2.47;;
53843;SDS011;39744;53.314;5.710;2023-01-08T03:54:12;12.10;;;2.63;;
53843;SDS011;39744;53.314;5.710;2023-01-08T03:56:40;18.73;;;3.17;;
53843;SDS011;39744;53.314;5.710;2023-01-08T03:59:06;11.88;;;2.75;;
53843;SDS011;39744;53.314;5.710;2023-01-08T04:01:32;10.25;;;2.40;;
53843;SDS011;39744;53.314;5.710;2023-01-08T04:03:57;11.88;;;2.30;;
53843;SDS011;39744;53.314;5.710;2023-01-08T04:06:23;9.65;;;2.67;;
53843;SDS011;39744;53.314;5.710;2023-01-08T04:08:49;13.60;;;3.45;;
53843;SDS011;39744;53.314;5.710;2023-01-08T04:11:14;14.05;;;2.30;;
53843;SDS011;39744;53.314;5.710;2023-01-08T04:13:40;11.77;;;2.78;;
53843;SDS011;39744;53.314;5.710;2023-01-08T04:16:06;11.52;;;2.80;;
53843;SDS011;39744;53.314;5.710;2023-01-08T04:18:32;12.88;;;3.10;;
53843;SDS011;39744;53.314;5.710;2023-01-08T04:20:58;10.60;;;2.55;;
53843;SDS011;39744;53.314;5.710;2023-01-08T04:23:24;12.98;;;2.63;;
53843;SDS011;39744;53.314;5.710;2023-01-08T04:25:50;13.38;;;3.10;;
53843;SDS011;39744;53.314;5.710;2023-01-08T04:28:16;10.10;;;2.80;;
53843;SDS011;39744;53.314;5.710;2023-01-08T04:30:41;11.25;;;2.95;;
53843;SDS011;39744;53.314;5.710;2023-01-08T04:33:07;10.13;;;3.00;;
53843;SDS011;39744;53.314;5.710;2023-01-08T04:35:33;15.73;;;3.35;;
53843;SDS011;39744;53.314;5.710;2023-01-08T04:37:58;17.15;;;3.08;;
53843;SDS011;39744;53.314;5.710;2023-01-08T04:40:24;12.15;;;3.08;;
53843;SDS011;39744;53.314;5.710;2023-01-08T04:42:50;15.40;;;3.13;;
53843;SDS011;39744;53.314;5.710;2023-01-08T04:45:15;10.80;;;3.40;;
53843;SDS011;39744;53.314;5.710;2023-01-08T04:47:42;9.45;;;2.80;;
53843;SDS011;39744;53.314;5.710;2023-01-08T04:50:08;8.80;;;2.85;;
53843;SDS011;39744;53.314;5.710;2023-01-08T04:52:34;10.48;;;2.90;;
53843;SDS011;39744;53.314;5.710;2023-01-08T04:54:59;11.25;;;3.30;;
53843;SDS011;39744;53.314;5.710;2023-01-08T04:57:25;9.68;;;3.15;;
53843;SDS011;39744;53.314;5.710;2023-01-08T04:59:50;15.95;;;3.03;;
53843;SDS011;39744;53.314;5.710;2023-01-08T05:02:17;13.77;;;3.08;;
53843;SDS011;39744;53.314;5.710;2023-01-08T05:04:43;8.75;;;3.05;;
53843;SDS011;39744;53.314;5.710;2023-01-08T05:07:09;9.25;;;2.80;;
53843;SDS011;39744;53.314;5.710;2023-01-08T05:09:35;12.55;;;3.03;;
53843;SDS011;39744;53.314;5.710;2023-01-08T05:12:01;9.25;;;2.90;;
53843;SDS011;39744;53.314;5.710;2023-01-08T05:14:26;9.85;;;2.50;;
53843;SDS011;39744;53.314;5.710;2023-01-08T05:16:52;9.90;;;2.60;;
53843;SDS011;39744;53.314;5.710;2023-01-08T05:19:19;7.68;;;2.60;;
53843;SDS011;39744;53.314;5.710;2023-01-08T05:21:45;10.63;;;2.78;;
53843;SDS011;39744;53.314;5.710;2023-01-08T05:24:12;9.48;;;3.05;;
53843;SDS011;39744;53.314;5.710;2023-01-08T05:26:37;8.27;;;2.78;;
53843;SDS011;39744;53.314;5.710;2023-01-08T05:29:03;7.50;;;2.50;;
53843;SDS011;39744;53.314;5.710;2023-01-08T05:31:29;13.57;;;3.13;;
53843;SDS011;39744;53.314;5.710;2023-01-08T05:33:57;11.48;;;2.63;;
53843;SDS011;39744;53.314;5.710;2023-01-08T05:36:23;8.90;;;2.78;;
53843;SDS011;39744;53.314;5.710;2023-01-08T05:38:49;10.00;;;2.60;;
53843;SDS011;39744;53.314;5.710;2023-01-08T05:41:15;7.68;;;2.58;;
53843;SDS011;39744;53.314;5.710;2023-01-08T05:43:41;8.20;;;2.92;;
53843;SDS011;39744;53.314;5.710;2023-01-08T05:46:09;8.05;;;2.78;;
53843;SDS011;39744;53.314;5.710;2023-01-08T05:48:35;12.20;;;2.60;;
53843;SDS011;39744;53.314;5.710;2023-01-08T05:51:02;8.50;;;2.63;;
53843;SDS011;39744;53.314;5.710;2023-01-08T05:53:28;11.82;;;3.45;;
53843;SDS011;39744;53.314;5.710;2023-01-08T05:56:00;6.10;;;2.25;;
53843;SDS011;39744;53.314;5.710;2023-01-08T05:58:27;11.90;;;2.45;;
53843;SDS011;39744;53.314;5.710;2023-01-08T06:00:54;11.82;;;2.17;;
53843;SDS011;39744;53.314;5.710;2023-01-08T06:03:25;8.23;;;2.60;;
53843;SDS011;39744;53.314;5.710;2023-01-08T06:05:51;7.53;;;2.17;;
53843;SDS011;39744;53.314;5.710;2023-01-08T06:08:17;10.40;;;2.45;;
53843;SDS011;39744;53.314;5.710;2023-01-08T06:10:43;13.65;;;2.42;;
53843;SDS011;39744;53.314;5.710;2023-01-08T06:13:11;9.82;;;2.15;;
53843;SDS011;39744;53.314;5.710;2023-01-08T06:15:37;7.03;;;2.30;;
53843;SDS011;39744;53.314;5.710;2023-01-08T06:18:04;8.88;;;1.95;;
53843;SDS011;39744;53.314;5.710;2023-01-08T06:20:30;11.68;;;3.28;;
53843;SDS011;39744;53.314;5.710;2023-01-08T06:22:55;9.77;;;1.90;;
53843;SDS011;39744;53.314;5.710;2023-01-08T06:25:21;7.60;;;2.05;;
53843;SDS011;39744;53.314;5.710;2023-01-08T06:27:52;6.82;;;2.05;;
53843;SDS011;39744;53.314;5.710;2023-01-08T06:30:19;13.85;;;2.33;;
53843;SDS011;39744;53.314;5.710;2023-01-08T06:32:44;9.35;;;2.00;;
53843;SDS011;39744;53.314;5.710;2023-01-08T06:35:10;11.18;;;2.35;;
53843;SDS011;39744;53.314;5.710;2023-01-08T06:37:36;8.40;;;2.50;;
53843;SDS011;39744;53.314;5.710;2023-01-08T06:40:01;6.80;;;2.40;;
53843;SDS011;39744;53.314;5.710;2023-01-08T06:42:27;7.85;;;2.08;;
53843;SDS011;39744;53.314;5.710;2023-01-08T06:44:53;8.23;;;2.50;;
53843;SDS011;39744;53.314;5.710;2023-01-08T06:47:18;10.38;;;2.45;;
53843;SDS011;39744;53.314;5.710;2023-01-08T06:49:44;12.88;;;2.35;;
53843;SDS011;39744;53.314;5.710;2023-01-08T06:52:09;11.88;;;2.30;;
53843;SDS011;39744;53.314;5.710;2023-01-08T06:54:35;12.18;;;2.38;;
53843;SDS011;39744;53.314;5.710;2023-01-08T06:57:01;12.40;;;1.92;;
53843;SDS011;39744;53.314;5.710;2023-01-08T06:59:27;13.07;;;2.55;;
53843;SDS011;39744;53.314;5.710;2023-01-08T07:01:52;11.45;;;2.08;;
53843;SDS011;39744;53.314;5.710;2023-01-08T07:04:18;13.25;;;2.60;;
53843;SDS011;39744;53.314;5.710;2023-01-08T07:06:44;16.55;;;2.20;;
53843;SDS011;39744;53.314;5.710;2023-01-08T07:09:13;11.45;;;2.05;;
53843;SDS011;39744;53.314;5.710;2023-01-08T07:11:40;8.93;;;2.50;;
53843;SDS011;39744;53.314;5.710;2023-01-08T07:14:08;11.80;;;2.15;;
53843;SDS011;39744;53.314;5.710;2023-01-08T07:16:43;10.52;;;2.40;;
53843;SDS011;39744;53.314;5.710;2023-01-08T07:19:11;7.85;;;2.10;;
53843;SDS011;39744;53.314;5.710;2023-01-08T07:21:36;12.98;;;2.70;;
53843;SDS011;39744;53.314;5.710;2023-01-08T07:24:03;14.07;;;2.45;;
53843;SDS011;39744;53.314;5.710;2023-01-08T07:26:31;11.15;;;2.00;;
53843;SDS011;39744;53.314;5.710;2023-01-08T07:28:57;10.70;;;2.15;;
53843;SDS011;39744;53.314;5.710;2023-01-08T07:31:24;11.13;;;2.28;;
53843;SDS011;39744;53.314;5.710;2023-01-08T07:33:50;8.27;;;2.15;;
53843;SDS011;39744;53.314;5.710;2023-01-08T07:36:15;10.80;;;2.53;;
53843;SDS011;39744;53.314;5.710;2023-01-08T07:38:49;11.00;;;2.47;;
53843;SDS011;39744;53.314;5.710;2023-01-08T07:41:17;12.27;;;2.60;;
53843;SDS011;39744;53.314;5.710;2023-01-08T07:43:49;14.52;;;2.30;;
53843;SDS011;39744;53.314;5.710;2023-01-08T07:46:17;12.95;;;2.25;;
53843;SDS011;39744;53.314;5.710;2023-01-08T07:48:46;10.63;;;2.28;;
53843;SDS011;39744;53.314;5.710;2023-01-08T07:51:13;8.63;;;2.13;;
53843;SDS011;39744;53.314;5.710;2023-01-08T07:53:39;8.95;;;2.20;;
53843;SDS011;39744;53.314;5.710;2023-01-08T07:56:06;12.38;;;2.42;;
53843;SDS011;39744;53.314;5.710;2023-01-08T07:58:35;9.63;;;2.50;;
53843;SDS011;39744;53.314;5.710;2023-01-08T08:01:03;9.57;;;3.08;;
53843;SDS011;39744;53.314;5.710;2023-01-08T08:03:32;10.43;;;2.63;;
53843;SDS011;39744;53.314;5.710;2023-01-08T08:06:08;13.55;;;2.80;;
53843;SDS011;39744;53.314;5.710;2023-01-08T08:08:37;8.00;;;2.75;;
53843;SDS011;39744;53.314;5.710;2023-01-08T08:11:04;12.50;;;2.85;;
53843;SDS011;39744;53.314;5.710;2023-01-08T08:13:34;11.20;;;3.33;;
53843;SDS011;39744;53.314;5.710;2023-01-08T08:16:04;8.90;;;2.78;;
53843;SDS011;39744;53.314;5.710;2023-01-08T08:18:34;9.98;;;3.05;;
53843;SDS011;39744;53.314;5.710;2023-01-08T08:20:59;16.52;;;3.75;;
53843;SDS011;39744;53.314;5.710;2023-01-08T08:23:25;10.98;;;3.17;;
53843;SDS011;39744;53.314;5.710;2023-01-08T08:25:51;12.40;;;3.17;;
53843;SDS011;39744;53.314;5.710;2023-01-08T08:28:16;11.90;;;3.17;;
53843;SDS011;39744;53.314;5.710;2023-01-08T08:30:43;11.90;;;3.28;;
53843;SDS011;39744;53.314;5.710;2023-01-08T08:33:10;15.40;;;3.20;;
53843;SDS011;39744;53.314;5.710;2023-01-08T08:35:36;15.77;;;3.40;;
53843;SDS011;39744;53.314;5.710;2023-01-08T08:38:02;12.88;;;3.30;;
53843;SDS011;39744;53.314;5.710;2023-01-08T08:40:28;15.52;;;3.60;;
53843;SDS011;39744;53.314;5.710;2023-01-08T08:42:54;11.55;;;3.30;;
53843;SDS011;39744;53.314;5.710;2023-01-08T08:45:24;10.00;;;2.90;;
53843;SDS011;39744;53.314;5.710;2023-01-08T08:47:50;10.80;;;3.20;;
53843;SDS011;39744;53.314;5.710;2023-01-08T08:50:16;14.30;;;2.92;;
53843;SDS011;39744;53.314;5.710;2023-01-08T08:52:42;11.60;;;2.63;;
53843;SDS011;39744;53.314;5.710;2023-01-08T08:55:09;12.77;;;2.80;;
53843;SDS011;39744;53.314;5.710;2023-01-08T08:57:39;16.67;;;3.30;;
53843;SDS011;39744;53.314;5.710;2023-01-08T09:00:05;11.98;;;2.90;;
53843;SDS011;39744;53.314;5.710;2023-01-08T09:02:32;14.70;;;3.08;;
53843;SDS011;39744;53.314;5.710;2023-01-08T09:04:59;13.35;;;2.45;;
53843;SDS011;39744;53.314;5.710;2023-01-08T09:07:25;15.95;;;3.20;;
53843;SDS011;39744;53.314;5.710;2023-01-08T09:09:50;17.90;;;3.00;;
53843;SDS011;39744;53.314;5.710;2023-01-08T09:12:16;15.68;;;3.05;;
53843;SDS011;39744;53.314;5.710;2023-01-08T09:14:44;11.27;;;2.40;;
53843;SDS011;39744;53.314;5.710;2023-01-08T09:17:10;11.75;;;2.90;;
53843;SDS011;39744;53.314;5.710;2023-01-08T09:19:35;13.32;;;3.30;;
53843;SDS011;39744;53.314;5.710;2023-01-08T09:22:02;12.50;;;2.60;;
53843;SDS011;39744;53.314;5.710;2023-01-08T09:24:31;12.25;;;2.85;;
53843;SDS011;39744;53.314;5.710;2023-01-08T09:26:57;10.88;;;2.75;;
53843;SDS011;39744;53.314;5.710;2023-01-08T09:29:23;10.18;;;2.85;;
53843;SDS011;39744;53.314;5.710;2023-01-08T09:31:50;14.43;;;2.97;;
53843;SDS011;39744;53.314;5.710;2023-01-08T09:34:23;14.73;;;2.72;;
53843;SDS011;39744;53.314;5.710;2023-01-08T09:36:49;17.15;;;2.72;;
53843;SDS011;39744;53.314;5.710;2023-01-08T09:39:16;12.18;;;2.50;;
53843;SDS011;39744;53.314;5.710;2023-01-08T09:41:45;10.52;;;2.58;;
53843;SDS011;39744;53.314;5.710;2023-01-08T09:44:19;15.30;;;2.60;;
53843;SDS011;39744;53.314;5.710;2023-01-08T09:46:47;12.20;;;2.55;;
53843;SDS011;39744;53.314;5.710;2023-01-08T09:49:36;14.27;;;2.78;;
53843;SDS011;39744;53.314;5.710;2023-01-08T09:52:02;9.57;;;2.50;;
53843;SDS011;39744;53.314;5.710;2023-01-08T09:54:28;6.10;;;1.88;;
53843;SDS011;39744;53.314;5.710;2023-01-08T09:56:54;10.60;;;2.85;;
53843;SDS011;39744;53.314;5.710;2023-01-08T09:59:23;9.43;;;2.40;;
53843;SDS011;39744;53.314;5.710;2023-01-08T10:01:49;13.00;;;2.50;;
53843;SDS011;39744;53.314;5.710;2023-01-08T10:06:53;14.00;;;2.50;;
53843;SDS011;39744;53.314;5.710;2023-01-08T10:09:25;12.93;;;3.47;;
53843;SDS011;39744;53.314;5.710;2023-01-08T10:11:54;15.38;;;3.08;;
53843;SDS011;39744;53.314;5.710;2023-01-08T10:14:23;12.15;;;2.70;;
53843;SDS011;39744;53.314;5.710;2023-01-08T10:16:54;12.45;;;2.67;;
53843;SDS011;39744;53.314;5.710;2023-01-08T10:19:21;11.40;;;2.83;;
53843;SDS011;39744;53.314;5.710;2023-01-08T10:21:47;13.40;;;2.75;;
53843;SDS011;39744;53.314;5.710;2023-01-08T10:24:13;7.93;;;2.40;;
53843;SDS011;39744;53.314;5.710;2023-01-08T10:26:39;6.93;;;2.30;;
53843;SDS011;39744;53.314;5.710;2023-01-08T10:29:16;7.78;;;2.15;;
53843;SDS011;39744;53.314;5.710;2023-01-08T10:31:49;10.52;;;2.50;;
53843;SDS011;39744;53.314;5.710;2023-01-08T10:37:22;10.20;;;2.50;;
53843;SDS011;39744;53.314;5.710;2023-01-08T10:39:51;9.48;;;2.28;;
53843;SDS011;39744;53.314;5.710;2023-01-08T10:42:21;14.02;;;3.00;;
53843;SDS011;39744;53.314;5.710;2023-01-08T10:44:51;10.40;;;3.20;;
53843;SDS011;39744;53.314;5.710;2023-01-08T10:47:19;11.77;;;2.85;;
53843;SDS011;39744;53.314;5.710;2023-01-08T10:49:45;7.45;;;2.95;;
53843;SDS011;39744;53.314;5.710;2023-01-08T10:52:50;14.10;;;3.42;;
53843;SDS011;39744;53.314;5.710;2023-01-08T10:55:21;13.85;;;2.35;;
53843;SDS011;39744;53.314;5.710;2023-01-08T10:57:58;15.05;;;2.42;;
53843;SDS011;39744;53.314;5.710;2023-01-08T11:00:26;12.20;;;2.55;;
53843;SDS011;39744;53.314;5.710;2023-01-08T11:02:52;9.82;;;2.28;;
53843;SDS011;39744;53.314;5.710;2023-01-08T11:05:19;16.00;;;2.45;;
53843;SDS011;39744;53.314;5.710;2023-01-08T11:07:54;14.27;;;2.65;;
53843;SDS011;39744;53.314;5.710;2023-01-08T11:10:23;11.93;;;2.65;;
53843;SDS011;39744;53.314;5.710;2023-01-08T11:12:54;19.02;;;2.45;;
53843;SDS011;39744;53.314;5.710;2023-01-08T11:17:47;7.03;;;2.00;;
53843;SDS011;39744;53.314;5.710;2023-01-08T11:20:21;10.43;;;2.20;;
53843;SDS011;39744;53.314;5.710;2023-01-08T11:22:47;12.00;;;2.20;;
53843;SDS011;39744;53.314;5.710;2023-01-08T11:25:13;7.55;;;2.10;;
53843;SDS011;39744;53.314;5.710;2023-01-08T11:27:41;11.10;;;2.13;;
53843;SDS011;39744;53.314;5.710;2023-01-08T11:30:16;13.70;;;2.72;;
53843;SDS011;39744;53.314;5.710;2023-01-08T11:32:52;7.75;;;1.85;;
53843;SDS011;39744;53.314;5.710;2023-01-08T11:37:56;10.75;;;2.10;;
53843;SDS011;39744;53.314;5.710;2023-01-08T11:48:07;11.05;;;2.10;;
53843;SDS011;39744;53.314;5.710;2023-01-08T11:56:14;13.63;;;2.70;;
53843;SDS011;39744;53.314;5.710;2023-01-08T12:01:40;8.85;;;2.53;;
53843;SDS011;39744;53.314;5.710;2023-01-08T12:04:15;9.77;;;2.35;;
53843;SDS011;39744;53.314;5.710;2023-01-08T12:09:40;16.65;;;2.97;;
53843;SDS011;39744;53.314;5.710;2023-01-08T12:20:16;11.32;;;2.40;;
53843;SDS011;39744;53.314;5.710;2023-01-08T12:22:56;14.07;;;2.65;;
53843;SDS011;39744;53.314;5.710;2023-01-08T12:27:58;17.33;;;4.28;;
53843;SDS011;39744;53.314;5.710;2023-01-08T12:35:46;8.68;;;2.78;;
53843;SDS011;39744;53.314;5.710;2023-01-08T12:38:20;10.80;;;3.05;;
53843;SDS011;39744;53.314;5.710;2023-01-08T12:40:51;12.80;;;3.33;;
53843;SDS011;39744;53.314;5.710;2023-01-08T12:46:04;9.50;;;2.58;;
53843;SDS011;39744;53.314;5.710;2023-01-08T12:48:31;15.93;;;3.55;;
53843;SDS011;39744;53.314;5.710;2023-01-08T12:51:16;13.38;;;2.70;;
53843;SDS011;39744;53.314;5.710;2023-01-08T13:04:37;12.27;;;3.35;;
53843;SDS011;39744;53.314;5.710;2023-01-08T13:07:04;12.60;;;3.42;;
53843;SDS011;39744;53.314;5.710;2023-01-08T13:09:30;16.98;;;3.88;;
53843;SDS011;39744;53.314;5.710;2023-01-08T13:11:57;10.93;;;3.50;;
53843;SDS011;39744;53.314;5.710;2023-01-08T13:14:24;15.32;;;3.40;;
53843;SDS011;39744;53.314;5.710;2023-01-08T13:17:03;17.92;;;4.07;;
53843;SDS011;39744;53.314;5.710;2023-01-08T13:19:33;12.90;;;3.70;;
53843;SDS011;39744;53.314;5.710;2023-01-08T13:22:03;15.07;;;3.85;;
53843;SDS011;39744;53.314;5.710;2023-01-08T13:24:34;13.52;;;3.65;;
53843;SDS011;39744;53.314;5.710;2023-01-08T13:29:40;13.68;;;3.60;;
53843;SDS011;39744;53.314;5.710;2023-01-08T13:35:31;8.02;;;3.40;;
53843;SDS011;39744;53.314;5.710;2023-01-08T13:37:39;9.35;;;2.95;;
53843;SDS011;39744;53.314;5.710;2023-01-08T13:40:34;10.25;;;3.50;;
53843;SDS011;39744;53.314;5.710;2023-01-08T13:42:51;10.18;;;3.38;;
53843;SDS011;39744;53.314;5.710;2023-01-08T13:45:17;13.93;;;3.13;;
53843;SDS011;39744;53.314;5.710;2023-01-08T13:47:43;11.23;;;3.28;;
53843;SDS011;39744;53.314;5.710;2023-01-08T13:50:18;13.95;;;3.40;;
53843;SDS011;39744;53.314;5.710;2023-01-08T13:52:46;12.15;;;3.55;;
53843;SDS011;39744;53.314;5.710;2023-01-08T13:55:22;13.88;;;3.40;;
53843;SDS011;39744;53.314;5.710;2023-01-08T13:57:52;10.60;;;3.33;;
53843;SDS011;39744;53.314;5.710;2023-01-08T14:00:21;9.68;;;3.22;;
53843;SDS011;39744;53.314;5.710;2023-01-08T14:02:48;9.43;;;3.03;;
53843;SDS011;39744;53.314;5.710;2023-01-08T14:05:25;13.60;;;3.33;;
53843;SDS011;39744;53.314;5.710;2023-01-08T14:07:51;9.98;;;2.83;;
53843;SDS011;39744;53.314;5.710;2023-01-08T14:10:18;8.52;;;3.10;;
53843;SDS011;39744;53.314;5.710;2023-01-08T14:12:44;10.90;;;2.80;;
53843;SDS011;39744;53.314;5.710;2023-01-08T14:15:26;8.35;;;2.88;;
53843;SDS011;39744;53.314;5.710;2023-01-08T14:17:53;10.15;;;2.63;;
53843;SDS011;39744;53.314;5.710;2023-01-08T14:20:31;10.55;;;2.60;;
53843;SDS011;39744;53.314;5.710;2023-01-08T14:22:58;12.90;;;3.00;;
53843;SDS011;39744;53.314;5.710;2023-01-08T14:25:24;9.65;;;2.60;;
53843;SDS011;39744;53.314;5.710;2023-01-08T14:27:58;9.93;;;2.70;;
53843;SDS011;39744;53.314;5.710;2023-01-08T14:30:25;11.30;;;2.78;;
53843;SDS011;39744;53.314;5.710;2023-01-08T14:32:51;6.75;;;2.95;;
53843;SDS011;39744;53.314;5.710;2023-01-08T14:35:19;11.00;;;2.80;;
53843;SDS011;39744;53.314;5.710;2023-01-08T14:37:45;10.45;;;2.83;;
53843;SDS011;39744;53.314;5.710;2023-01-08T14:40:12;9.98;;;2.75;;
53843;SDS011;39744;53.314;5.710;2023-01-08T14:42:39;9.18;;;3.40;;
53843;SDS011;39744;53.314;5.710;2023-01-08T14:47:38;6.03;;;2.55;;
53843;SDS011;39744;53.314;5.710;2023-01-08T14:50:05;14.07;;;2.78;;
53843;SDS011;39744;53.314;5.710;2023-01-08T14:52:31;8.57;;;2.97;;
53843;SDS011;39744;53.314;5.710;2023-01-08T14:54:57;11.23;;;2.65;;
53843;SDS011;39744;53.314;5.710;2023-01-08T14:57:25;9.00;;;2.90;;
53843;SDS011;39744;53.314;5.710;2023-01-08T15:00:00;10.32;;;2.65;;
53843;SDS011;39744;53.314;5.710;2023-01-08T15:02:30;13.68;;;3.00;;
53843;SDS011;39744;53.314;5.710;2023-01-08T15:07:52;10.40;;;2.72;;
53843;SDS011;39744;53.314;5.710;2023-01-08T15:10:28;8.00;;;2.45;;
53843;SDS011;39744;53.314;5.710;2023-01-08T15:12:56;9.57;;;2.88;;
53843;SDS011;39744;53.314;5.710;2023-01-08T15:15:24;8.10;;;2.70;;
53843;SDS011;39744;53.314;5.710;2023-01-08T15:17:50;8.63;;;3.03;;
53843;SDS011;39744;53.314;5.710;2023-01-08T15:20:17;9.32;;;2.80;;
53843;SDS011;39744;53.314;5.710;2023-01-08T15:22:43;10.93;;;2.90;;
53843;SDS011;39744;53.314;5.710;2023-01-08T15:25:21;12.90;;;3.13;;
53843;SDS011;39744;53.314;5.710;2023-01-08T15:27:51;12.35;;;3.17;;
53843;SDS011;39744;53.314;5.710;2023-01-08T15:30:22;6.18;;;2.72;;
53843;SDS011;39744;53.314;5.710;2023-01-08T15:32:49;10.98;;;3.25;;
53843;SDS011;39744;53.314;5.710;2023-01-08T15:35:16;8.95;;;3.20;;
53843;SDS011;39744;53.314;5.710;2023-01-08T15:37:42;10.25;;;3.30;;
53843;SDS011;39744;53.314;5.710;2023-01-08T15:40:09;10.82;;;3.25;;
53843;SDS011;39744;53.314;5.710;2023-01-08T15:42:35;8.57;;;3.35;;
53843;SDS011;39744;53.314;5.710;2023-01-08T15:45:24;7.28;;;3.00;;
53843;SDS011;39744;53.314;5.710;2023-01-08T15:47:52;10.40;;;2.97;;
53843;SDS011;39744;53.314;5.710;2023-01-08T15:50:18;6.30;;;2.90;;
53843;SDS011;39744;53.314;5.710;2023-01-08T15:52:44;9.13;;;3.47;;
53843;SDS011;39744;53.314;5.710;2023-01-08T15:55:21;12.98;;;3.40;;
53843;SDS011;39744;53.314;5.710;2023-01-08T15:57:47;11.18;;;4.13;;
53843;SDS011;39744;53.314;5.710;2023-01-08T16:00:14;7.85;;;3.70;;
53843;SDS011;39744;53.314;5.710;2023-01-08T16:02:41;10.95;;;3.70;;
53843;SDS011;39744;53.314;5.710;2023-01-08T16:05:07;8.98;;;3.70;;
53843;SDS011;39744;53.314;5.710;2023-01-08T16:07:33;8.32;;;3.97;;
53843;SDS011;39744;53.314;5.710;2023-01-08T16:09:59;9.10;;;3.80;;
53843;SDS011;39744;53.314;5.710;2023-01-08T16:12:25;9.75;;;3.72;;